createdAt,value
2018-07-26T00:02:24.416Z,47.90
2018-07-26T00:04:57.211Z,48.70
2018-07-26T00:07:29.985Z,48.80
2018-07-26T00:10:02.804Z,48.70
2018-07-26T00:12:35.715Z,49.20
2018-07-26T00:15:08.702Z,51.20
2018-07-26T00:17:41.516Z,49.50
2018-07-26T00:20:14.427Z,49.40
2018-07-26T00:22:47.286Z,48.70
2018-07-26T00:25:20.133Z,50.70
2018-07-26T00:27:52.969Z,48.70
2018-07-26T00:30:25.795Z,48.50
2018-07-26T00:32:58.616Z,50.10
2018-07-26T00:35:31.458Z,47.70
2018-07-26T00:38:04.283Z,49.20
2018-07-26T00:40:37.141Z,48.90
2018-07-26T00:43:10.224Z,47.80
2018-07-26T00:45:43.059Z,49.20
2018-07-26T00:48:16.007Z,48.50
2018-07-26T00:50:49.028Z,47.00
2018-07-26T00:53:21.844Z,46.20
2018-07-26T00:55:54.723Z,47.40
2018-07-26T00:58:27.701Z,46.30
2018-07-26T01:01:00.498Z,47.10
2018-07-26T01:03:33.794Z,46.90
2018-07-26T01:06:06.702Z,45.00
2018-07-26T01:08:39.551Z,45.10
2018-07-26T01:11:12.367Z,44.20
2018-07-26T01:13:45.369Z,43.90
2018-07-26T01:16:18.210Z,44.20
2018-07-26T01:18:51.084Z,43.90
2018-07-26T01:21:23.909Z,43.60
2018-07-26T01:23:56.750Z,44.80
2018-07-26T01:26:29.585Z,43.40
2018-07-26T01:29:02.436Z,43.60
2018-07-26T01:31:35.254Z,42.40
2018-07-26T01:34:08.079Z,42.30
2018-07-26T01:36:40.941Z,41.50
2018-07-26T01:39:27.047Z,41.90
2018-07-26T01:42:00.584Z,42.60
2018-07-26T01:44:33.438Z,40.90
2018-07-26T01:47:06.239Z,41.80
2018-07-26T01:49:39.079Z,39.70
2018-07-26T01:52:11.891Z,39.50
2018-07-26T01:54:44.741Z,39.90
2018-07-26T01:57:17.626Z,39.90
2018-07-26T01:59:50.453Z,39.90
2018-07-26T02:02:24.973Z,39.20
2018-07-26T02:04:57.898Z,40.00
2018-07-26T02:07:30.730Z,39.70
2018-07-26T02:10:03.567Z,40.10
2018-07-26T02:12:36.447Z,40.10
2018-07-26T02:15:09.510Z,40.60
2018-07-26T02:17:42.349Z,41.20
2018-07-26T02:20:15.323Z,42.80
2018-07-26T02:22:48.206Z,42.30
2018-07-26T02:25:21.066Z,43.40
2018-07-26T02:27:54.023Z,45.60
2018-07-26T02:30:26.871Z,45.80
2018-07-26T02:32:59.734Z,46.50
2018-07-26T02:35:32.625Z,47.80
2018-07-26T02:38:05.500Z,47.70
2018-07-26T02:40:38.429Z,48.70
2018-07-26T02:43:12.671Z,50.30
2018-07-26T02:45:45.472Z,50.80
2018-07-26T02:48:18.331Z,51.90
2018-07-26T02:50:51.206Z,52.20
2018-07-26T02:53:23.980Z,52.30
2018-07-26T02:55:56.771Z,54.00
2018-07-26T02:58:29.618Z,52.70
2018-07-26T03:01:02.494Z,53.90
2018-07-26T03:03:35.331Z,55.40
2018-07-26T03:06:08.233Z,55.80
2018-07-26T03:08:41.138Z,55.50
2018-07-26T03:11:13.896Z,56.30
2018-07-26T03:13:46.940Z,55.70
2018-07-26T03:16:19.720Z,56.40
2018-07-26T03:18:52.505Z,56.90
2018-07-26T03:21:25.299Z,57.60
2018-07-26T03:23:58.145Z,61.40
2018-07-26T03:26:30.975Z,61.10
2018-07-26T03:29:03.806Z,60.40
2018-07-26T03:31:36.593Z,60.60
2018-07-26T03:34:09.457Z,61.30
2018-07-26T03:36:42.420Z,61.20
2018-07-26T03:39:15.307Z,63.20
2018-07-26T03:41:48.202Z,63.70
2018-07-26T03:44:21.097Z,63.50
2018-07-26T03:46:54.012Z,68.80
2018-07-26T03:49:26.800Z,65.80
2018-07-26T03:52:00.657Z,67.00
2018-07-26T03:54:34.313Z,69.30
2018-07-26T03:57:07.229Z,69.00
2018-07-26T03:59:40.094Z,70.40
2018-07-26T04:02:12.957Z,69.80
2018-07-26T04:04:45.917Z,70.30
2018-07-26T04:07:18.925Z,71.70
2018-07-26T04:09:51.784Z,72.60
2018-07-26T04:12:24.649Z,73.30
2018-07-26T04:14:57.628Z,74.40
2018-07-26T04:17:30.666Z,75.20
2018-07-26T04:20:03.680Z,75.70
2018-07-26T04:22:36.535Z,76.40
2018-07-26T04:25:09.332Z,77.50
2018-07-26T04:27:42.605Z,77.00
2018-07-26T04:30:15.613Z,78.50
2018-07-26T04:32:48.441Z,77.60
2018-07-26T04:35:21.366Z,77.80
2018-07-26T04:37:54.628Z,78.10
2018-07-26T04:40:27.582Z,78.60
2018-07-26T04:43:00.658Z,78.80
2018-07-26T04:45:33.774Z,78.90
2018-07-26T04:48:06.685Z,78.50
2018-07-26T04:50:39.969Z,78.20
2018-07-26T04:53:12.859Z,77.90
2018-07-26T04:55:45.802Z,77.80
2018-07-26T04:58:19.795Z,77.30
2018-07-26T05:00:54.772Z,78.00
2018-07-26T05:03:29.325Z,77.80
2018-07-26T05:06:02.817Z,77.90
2018-07-26T05:08:35.705Z,78.00
2018-07-26T05:11:08.489Z,78.10
2018-07-26T05:13:45.452Z,77.30
2018-07-26T05:16:19.447Z,77.60
2018-07-26T05:18:55.640Z,77.10
2018-07-26T05:21:28.611Z,77.10
2018-07-26T05:24:01.697Z,77.40
2018-07-26T05:26:37.746Z,77.00
2018-07-26T05:29:10.753Z,77.60
2018-07-26T05:31:47.545Z,78.10
2018-07-26T05:34:20.466Z,76.90
2018-07-26T05:36:53.401Z,77.80
2018-07-26T05:39:34.084Z,77.70
2018-07-26T05:42:15.291Z,77.90
2018-07-26T05:45:29.151Z,78.50
2018-07-26T05:48:02.041Z,79.00
2018-07-26T05:50:34.897Z,78.90
2018-07-26T05:53:07.772Z,79.40
2018-07-26T05:55:40.748Z,80.30
2018-07-26T05:58:13.636Z,80.30
2018-07-26T06:00:46.538Z,80.60
2018-07-26T06:03:19.377Z,80.50
2018-07-26T06:05:52.260Z,81.50
2018-07-26T06:08:25.076Z,82.20
2018-07-26T06:10:57.981Z,82.00
2018-07-26T06:13:30.823Z,82.10
2018-07-26T06:16:03.665Z,82.20
2018-07-26T06:18:36.566Z,83.20
2018-07-26T06:21:09.458Z,82.80
2018-07-26T06:23:42.293Z,83.60
2018-07-26T06:26:15.723Z,83.70
2018-07-26T06:28:48.497Z,85.40
2018-07-26T06:31:21.549Z,85.50
2018-07-26T06:33:54.384Z,87.00
2018-07-26T06:36:27.256Z,88.40
2018-07-26T06:39:00.105Z,87.80
2018-07-26T06:41:32.914Z,87.90
2018-07-26T06:44:05.727Z,88.90
2018-07-26T06:46:38.683Z,89.30
2018-07-26T06:49:11.555Z,90.20
2018-07-26T06:51:44.445Z,90.10
2018-07-26T06:54:17.296Z,90.40
2018-07-26T06:56:50.195Z,90.30
2018-07-26T06:59:23.038Z,90.60
2018-07-26T07:01:55.886Z,90.80
2018-07-26T07:04:28.689Z,91.10
2018-07-26T07:07:01.549Z,91.30
2018-07-26T07:09:34.355Z,91.50
2018-07-26T07:12:07.218Z,91.80
2018-07-26T07:14:39.942Z,91.70
2018-07-26T07:17:12.975Z,92.00
2018-07-26T07:19:45.756Z,92.20
2018-07-26T07:22:18.635Z,92.30
2018-07-26T07:24:51.501Z,92.60
2018-07-26T07:27:24.326Z,92.70
2018-07-26T07:29:57.112Z,93.10
2018-07-26T07:32:29.925Z,93.10
2018-07-26T07:35:02.682Z,93.10
2018-07-26T07:37:35.606Z,93.30
2018-07-26T07:40:08.561Z,94.00
2018-07-26T07:42:41.595Z,93.70
2018-07-26T14:36:44.890Z,99.90
2018-07-26T14:39:17.671Z,99.90
2018-07-26T14:41:54.104Z,99.90
2018-07-26T14:44:26.976Z,99.90
2018-07-26T14:46:59.786Z,99.90
2018-07-26T14:49:32.563Z,99.90
2018-07-26T14:52:05.415Z,99.90
2018-07-26T14:54:38.241Z,99.90
2018-07-26T14:57:11.139Z,99.90
2018-07-26T14:59:43.917Z,98.90
2018-07-26T15:02:16.763Z,98.30
2018-07-26T15:04:49.596Z,97.00
2018-07-26T15:07:22.397Z,97.40
2018-07-26T15:09:55.182Z,96.40
2018-07-26T15:12:28.075Z,96.20
2018-07-26T15:15:00.800Z,96.20
2018-07-26T15:17:33.643Z,95.80
2018-07-26T15:20:06.384Z,95.70
2018-07-26T15:22:39.287Z,95.40
2018-07-26T15:25:12.065Z,95.50
2018-07-26T15:27:44.900Z,95.20
2018-07-26T15:30:17.712Z,94.90
2018-07-26T15:32:50.545Z,95.60
2018-07-26T15:35:23.379Z,95.60
2018-07-26T15:37:56.207Z,96.20
2018-07-26T15:40:28.991Z,95.70
2018-07-26T15:43:01.777Z,96.50
2018-07-26T15:45:34.600Z,96.70
2018-07-26T15:48:08.064Z,96.30
2018-07-26T15:50:40.860Z,97.00
2018-07-26T15:53:13.765Z,97.10
2018-07-26T15:55:46.512Z,97.10
2018-07-26T15:58:19.335Z,97.00
2018-07-26T16:00:52.137Z,97.20
2018-07-26T16:03:24.987Z,97.70
2018-07-26T16:05:57.823Z,97.10
2018-07-26T16:08:30.634Z,97.40
2018-07-26T16:11:03.494Z,97.10
2018-07-26T16:13:36.253Z,96.80
2018-07-26T16:16:09.017Z,96.70
2018-07-26T16:18:41.757Z,96.50
2018-07-26T16:21:14.571Z,96.80
2018-07-26T16:23:47.393Z,96.80
2018-07-26T16:26:20.231Z,96.60
2018-07-26T16:28:53.041Z,96.90
2018-07-26T16:31:25.768Z,96.70
2018-07-26T16:33:58.953Z,97.00
2018-07-26T16:36:31.950Z,96.40
2018-07-26T16:39:05.132Z,96.60
2018-07-26T16:41:38.018Z,96.60
2018-07-26T16:44:10.913Z,96.00
2018-07-26T16:46:44.400Z,96.30
2018-07-26T16:49:17.196Z,96.10
2018-07-26T16:51:50.123Z,95.80
2018-07-26T16:54:23.041Z,95.70
2018-07-26T16:56:55.844Z,95.80
2018-07-26T16:59:28.632Z,96.20
2018-07-26T17:02:01.473Z,95.70
2018-07-26T17:04:34.327Z,95.40
2018-07-26T17:07:07.213Z,95.50
2018-07-26T17:09:39.955Z,94.70
2018-07-26T17:12:12.870Z,94.80
2018-07-26T17:14:45.619Z,94.60
2018-07-26T17:17:18.444Z,94.50
2018-07-26T17:19:51.252Z,93.80
2018-07-26T17:22:24.046Z,93.50
2018-07-26T17:25:02.943Z,93.50
2018-07-26T17:27:35.765Z,93.40
2018-07-26T17:30:08.654Z,92.60
2018-07-26T17:32:41.463Z,91.90
2018-07-26T17:35:14.271Z,91.90
2018-07-26T17:37:47.404Z,91.40
2018-07-26T17:40:20.299Z,91.40
2018-07-26T17:42:53.131Z,91.50
2018-07-26T17:45:25.970Z,91.00
2018-07-26T17:47:58.743Z,90.80
2018-07-26T17:50:31.539Z,90.80
2018-07-26T17:53:04.295Z,89.20
2018-07-26T17:55:37.097Z,88.70
2018-07-26T17:58:09.888Z,89.00
2018-07-26T18:00:42.636Z,88.60
2018-07-26T18:03:15.468Z,88.10
2018-07-26T18:05:48.354Z,87.90
2018-07-26T18:08:21.160Z,85.40
2018-07-26T18:10:53.965Z,85.80
2018-07-26T18:13:26.765Z,85.80
2018-07-26T18:15:59.547Z,84.20
2018-07-26T18:18:32.308Z,87.20
2018-07-26T18:21:05.098Z,84.00
2018-07-26T18:23:38.144Z,84.40
2018-07-26T18:26:10.900Z,83.60
2018-07-26T18:28:43.929Z,84.90
2018-07-26T18:31:16.786Z,83.60
2018-07-26T18:33:49.625Z,82.00
2018-07-26T18:36:22.457Z,82.50
2018-07-26T18:38:55.341Z,82.50
2018-07-26T18:41:28.083Z,81.20
2018-07-26T18:44:00.945Z,80.90
2018-07-26T18:46:33.784Z,81.60
2018-07-26T18:49:06.606Z,81.50
2018-07-26T18:51:39.381Z,79.70
2018-07-26T18:54:12.112Z,77.00
2018-07-26T18:56:44.860Z,80.50
2018-07-26T18:59:17.694Z,81.00
2018-07-26T19:01:50.453Z,81.00
2018-07-26T19:04:23.191Z,81.70
2018-07-26T19:06:55.983Z,82.00
2018-07-26T19:09:28.743Z,81.70
2018-07-26T19:12:01.594Z,79.80
2018-07-26T19:14:34.337Z,78.90
2018-07-26T19:17:07.296Z,77.30
2018-07-26T19:19:40.060Z,77.60
2018-07-26T19:22:12.923Z,77.90
2018-07-26T19:24:45.827Z,75.60
2018-07-26T19:27:18.564Z,76.40
2018-07-26T19:29:51.439Z,78.20
2018-07-26T19:32:24.428Z,76.70
2018-07-26T19:34:57.243Z,77.10
2018-07-26T19:37:30.122Z,79.20
2018-07-26T19:40:02.909Z,78.00
2018-07-26T19:42:35.678Z,75.60
2018-07-26T19:45:09.577Z,74.00
2018-07-26T19:47:42.794Z,72.20
2018-07-26T19:50:15.626Z,74.30
2018-07-26T19:52:48.404Z,72.40
2018-07-26T19:55:21.198Z,72.00
2018-07-26T19:57:53.991Z,74.10
2018-07-26T20:00:26.781Z,72.20
2018-07-26T20:02:59.576Z,70.40
2018-07-26T20:05:32.417Z,73.40
2018-07-26T20:08:05.198Z,70.00
2018-07-26T20:10:38.118Z,68.30
2018-07-26T20:13:11.038Z,68.40
2018-07-26T20:15:43.789Z,69.60
2018-07-26T20:18:16.669Z,66.20
2018-07-26T20:20:49.508Z,68.10
2018-07-26T20:23:22.353Z,65.00
2018-07-26T20:25:55.186Z,68.60
2018-07-26T20:28:27.973Z,66.30
2018-07-26T20:31:00.856Z,62.50
2018-07-26T20:33:33.692Z,63.10
2018-07-26T20:36:06.503Z,63.60
2018-07-26T20:38:39.359Z,61.20
2018-07-26T20:41:12.107Z,59.00
2018-07-26T20:43:44.953Z,60.20
2018-07-26T20:46:17.751Z,59.80
2018-07-26T20:48:50.606Z,59.20
2018-07-26T20:51:23.378Z,59.50
2018-07-26T20:53:56.290Z,60.30
2018-07-26T20:56:29.220Z,57.90
2018-07-26T20:59:01.986Z,59.80
2018-07-26T21:01:34.729Z,60.60
2018-07-26T21:04:07.499Z,59.20
2018-07-26T21:06:40.300Z,60.50
2018-07-26T21:09:15.356Z,58.50
2018-07-26T21:11:48.143Z,57.60
2018-07-26T21:14:20.987Z,57.40
2018-07-26T21:16:53.809Z,57.60
2018-07-26T21:19:26.701Z,57.80
2018-07-26T21:21:59.572Z,57.30
2018-07-26T21:24:32.374Z,58.60
2018-07-26T21:27:05.236Z,57.80
2018-07-26T21:29:38.141Z,57.10
2018-07-26T21:32:11.162Z,56.90
2018-07-26T21:34:44.004Z,58.20
2018-07-26T21:37:16.812Z,55.40
2018-07-26T21:39:49.720Z,55.00
2018-07-26T21:42:22.535Z,53.40
2018-07-26T21:44:55.351Z,53.50
2018-07-26T21:47:28.170Z,54.50
2018-07-26T21:50:01.001Z,53.10
2018-07-26T21:52:33.793Z,55.90
2018-07-26T21:55:06.616Z,54.40
2018-07-26T21:57:39.425Z,52.10
2018-07-26T22:00:13.523Z,49.50
2018-07-26T22:02:46.320Z,50.20
2018-07-26T22:05:19.238Z,48.40
2018-07-26T22:07:52.056Z,49.90
2018-07-26T22:10:25.354Z,50.00
2018-07-26T22:12:58.199Z,50.80
2018-07-26T22:15:31.112Z,48.20
2018-07-26T22:18:04.016Z,48.50
2018-07-26T22:20:36.819Z,48.40
2018-07-26T22:23:10.008Z,47.00
2018-07-26T22:25:46.502Z,46.70
2018-07-26T22:28:19.871Z,46.90
2018-07-26T22:30:52.799Z,47.70
2018-07-26T22:33:25.664Z,48.10
2018-07-26T22:35:58.553Z,45.80
2018-07-26T22:38:31.424Z,46.20
2018-07-26T22:41:04.340Z,46.70
2018-07-26T22:43:38.038Z,46.10
2018-07-26T22:46:10.889Z,43.90
2018-07-26T22:48:43.831Z,45.90
2018-07-26T22:51:16.849Z,42.40
2018-07-26T22:53:49.782Z,41.80
2018-07-26T22:56:22.622Z,43.40
2018-07-26T22:58:55.448Z,44.60
2018-07-26T23:01:28.233Z,44.00
2018-07-26T23:04:01.085Z,43.20
2018-07-26T23:06:33.909Z,41.70
2018-07-26T23:09:07.037Z,41.50
2018-07-26T23:11:39.886Z,42.30
2018-07-26T23:14:12.659Z,41.70
2018-07-26T23:16:45.437Z,41.20
2018-07-26T23:19:18.255Z,40.90
2018-07-26T23:21:51.110Z,42.50
2018-07-26T23:24:23.936Z,41.90
2018-07-26T23:26:56.767Z,42.50
2018-07-26T23:29:29.552Z,42.60
2018-07-26T23:32:02.333Z,42.80
2018-07-26T23:34:35.293Z,41.10
2018-07-26T23:37:08.105Z,42.00
2018-07-26T23:39:40.955Z,40.20
2018-07-26T23:42:13.795Z,41.00
2018-07-26T23:44:47.088Z,42.30
2018-07-26T23:47:19.996Z,42.10
2018-07-26T23:49:52.773Z,41.00
2018-07-26T23:52:25.683Z,42.10
2018-07-26T23:54:58.917Z,40.90
2018-07-26T23:57:31.974Z,40.80
